createdAt,value
2018-07-17T00:00:09.977Z,63.80
2018-07-17T00:04:13.448Z,62.00
2018-07-17T00:08:16.832Z,63.10
2018-07-17T00:12:20.182Z,63.10
2018-07-17T00:16:23.560Z,62.00
2018-07-17T00:20:26.912Z,66.20
2018-07-17T00:24:30.236Z,63.70
2018-07-17T00:28:33.589Z,62.80
2018-07-17T00:32:36.946Z,63.00
2018-07-17T00:36:40.304Z,63.10
2018-07-17T00:40:43.677Z,64.20
2018-07-17T00:44:47.022Z,63.60
2018-07-17T00:48:51.146Z,64.10
2018-07-17T00:52:54.535Z,65.70
2018-07-17T00:56:57.900Z,64.00
2018-07-17T12:35:49.060Z,65.30
2018-07-17T12:39:52.531Z,51.00
2018-07-17T12:43:55.850Z,52.70
2018-07-17T12:48:00.258Z,52.40
2018-07-17T12:52:03.636Z,51.90
2018-07-17T12:56:07.101Z,47.20
2018-07-17T13:00:10.685Z,48.10
2018-07-17T13:04:14.051Z,51.70
2018-07-17T13:08:17.388Z,49.60
2018-07-17T13:12:22.168Z,49.10
2018-07-17T13:16:27.386Z,47.40
2018-07-17T13:20:32.126Z,47.40
2018-07-17T13:24:37.219Z,43.70
2018-07-17T13:28:42.799Z,50.40
2018-07-17T13:32:46.988Z,50.20
2018-07-17T13:36:52.246Z,46.90
2018-07-17T13:40:56.284Z,52.60
2018-07-17T13:45:00.880Z,52.40
2018-07-17T13:49:05.124Z,52.90
2018-07-17T13:53:09.027Z,53.10
2018-07-17T13:57:12.375Z,52.00
2018-07-17T14:01:15.825Z,53.70
2018-07-17T14:05:20.999Z,53.80
2018-07-17T14:09:24.332Z,53.70
2018-07-17T14:13:27.676Z,53.20
2018-07-17T14:17:31.420Z,53.40
2018-07-17T14:21:34.727Z,50.90
2018-07-17T14:25:38.063Z,52.80
2018-07-17T14:29:41.444Z,50.20
2018-07-17T14:33:45.409Z,50.60
2018-07-17T14:37:48.741Z,51.30
2018-07-17T14:41:52.184Z,52.60
2018-07-17T14:45:55.531Z,52.10
2018-07-17T14:50:00.019Z,52.70
2018-07-17T14:54:03.432Z,53.10
2018-07-17T14:58:06.958Z,51.80
2018-07-17T15:02:10.941Z,48.50
2018-07-17T15:06:14.271Z,51.60
2018-07-17T15:10:17.841Z,52.60
2018-07-17T15:14:21.223Z,48.40
2018-07-17T15:18:24.589Z,49.80
2018-07-17T15:22:28.066Z,49.00
2018-07-17T15:26:31.367Z,52.60
2018-07-17T15:30:34.744Z,52.90
2018-07-17T15:34:38.107Z,51.60
2018-07-17T15:38:41.440Z,50.00
2018-07-17T15:42:44.833Z,48.50
2018-07-17T15:46:48.156Z,49.30
2018-07-17T15:50:51.480Z,46.60
2018-07-17T15:54:55.091Z,48.90
2018-07-17T15:58:58.515Z,49.70
2018-07-17T16:03:01.876Z,45.00
2018-07-17T16:07:05.262Z,49.40
2018-07-17T16:11:08.740Z,47.20
2018-07-17T16:15:12.115Z,47.40
2018-07-17T16:19:15.468Z,49.40
2018-07-17T16:23:18.791Z,50.70
2018-07-17T16:27:22.133Z,48.20
2018-07-17T16:31:25.465Z,49.10
2018-07-17T16:35:28.829Z,46.80
2018-07-17T16:39:32.164Z,47.50
2018-07-17T16:43:35.564Z,49.00
2018-07-17T16:47:38.987Z,48.60
2018-07-17T16:51:42.875Z,49.80
2018-07-17T16:55:46.197Z,47.40
2018-07-17T16:59:49.612Z,49.60
2018-07-17T17:03:53.135Z,50.60
2018-07-17T17:07:56.632Z,48.10
2018-07-17T17:11:59.960Z,48.90
2018-07-17T17:16:03.321Z,47.90
2018-07-17T17:20:06.945Z,47.50
2018-07-17T17:24:10.337Z,49.30
2018-07-17T17:28:13.647Z,48.40
2018-07-17T17:32:16.969Z,49.40
2018-07-17T17:36:20.420Z,50.00
2018-07-17T17:40:23.764Z,50.00
2018-07-17T17:44:27.088Z,49.50
2018-07-17T17:48:30.438Z,50.70
2018-07-17T17:52:33.736Z,51.30
2018-07-17T17:56:37.065Z,49.00
2018-07-17T18:00:40.382Z,51.50
2018-07-17T18:04:43.720Z,50.60
2018-07-17T18:08:47.060Z,50.50
2018-07-17T18:12:50.379Z,50.70
2018-07-17T18:20:56.804Z,50.50
2018-07-17T18:25:00.132Z,51.80
2018-07-17T18:29:03.524Z,52.10
2018-07-17T18:33:06.851Z,52.60
2018-07-17T18:37:10.192Z,53.00
2018-07-17T18:45:16.636Z,53.50
2018-07-17T18:49:19.979Z,53.30
2018-07-17T18:53:23.326Z,53.30
2018-07-17T18:57:26.668Z,53.70
2018-07-17T19:01:30.010Z,54.00
2018-07-17T19:05:33.359Z,54.20
2018-07-17T19:09:36.697Z,54.20
2018-07-17T19:13:40.771Z,54.10
2018-07-17T19:17:44.171Z,54.80
2018-07-17T19:21:47.553Z,54.90
2018-07-17T19:25:50.896Z,54.60
2018-07-17T19:29:54.218Z,54.60
2018-07-17T19:33:57.565Z,54.70
2018-07-17T19:38:01.747Z,54.60
2018-07-17T19:42:05.135Z,55.10
2018-07-17T19:46:08.579Z,55.10
2018-07-17T19:50:11.883Z,55.50
2018-07-17T19:54:15.356Z,56.00
2018-07-17T19:58:18.676Z,55.70
2018-07-17T20:02:21.999Z,56.00
2018-07-17T20:10:28.427Z,56.10
2018-07-17T20:14:31.772Z,57.40
2018-07-17T20:18:35.095Z,56.40
2018-07-17T20:22:38.912Z,57.00
2018-07-17T20:26:42.266Z,57.00
2018-07-17T20:30:45.620Z,56.10
2018-07-17T20:34:48.961Z,57.50
2018-07-17T20:38:53.569Z,56.30
2018-07-17T20:42:56.875Z,56.40
2018-07-17T20:47:00.215Z,58.20
2018-07-17T20:51:03.706Z,56.40
2018-07-17T20:55:13.659Z,57.30
2018-07-17T20:59:16.988Z,58.60
2018-07-17T21:03:20.324Z,56.60
2018-07-17T21:07:23.679Z,57.30
2018-07-17T21:11:27.012Z,57.40
2018-07-17T21:15:30.355Z,58.00
2018-07-17T21:19:33.708Z,58.00
2018-07-17T21:23:37.028Z,58.50
2018-07-17T21:27:40.426Z,58.10
2018-07-17T21:31:44.023Z,58.40
2018-07-17T21:35:47.356Z,58.80
2018-07-17T21:39:50.704Z,58.60
2018-07-17T21:43:54.031Z,58.70
2018-07-17T21:47:57.365Z,58.10
2018-07-17T21:52:00.776Z,59.40
2018-07-17T21:56:04.182Z,58.60
2018-07-17T22:00:09.200Z,59.70
2018-07-17T22:04:12.539Z,59.10
2018-07-17T22:08:15.892Z,59.00
2018-07-17T22:12:19.228Z,58.60
2018-07-17T22:16:22.588Z,59.10
2018-07-17T22:20:25.931Z,59.60
2018-07-17T22:24:29.256Z,60.90
2018-07-17T22:28:32.615Z,59.40
2018-07-17T22:32:35.959Z,59.90
2018-07-17T22:36:39.319Z,61.40
2018-07-17T22:40:45.069Z,62.90
2018-07-17T22:44:48.446Z,59.80
2018-07-17T22:48:51.793Z,61.10
2018-07-17T22:52:55.157Z,60.70
2018-07-17T22:56:58.688Z,59.50
2018-07-17T23:01:02.207Z,61.80
2018-07-17T23:05:05.607Z,62.90
2018-07-17T23:09:10.096Z,62.50
2018-07-17T23:13:13.500Z,60.60
2018-07-17T23:17:16.849Z,62.20
2018-07-17T23:21:20.308Z,60.40
2018-07-17T23:25:24.824Z,60.40
2018-07-17T23:29:28.185Z,61.10
2018-07-17T23:33:31.531Z,61.00
2018-07-17T23:37:34.875Z,61.40
2018-07-17T23:41:38.220Z,61.30
2018-07-17T23:45:41.576Z,61.60
2018-07-17T23:49:44.901Z,63.00
2018-07-17T23:57:51.315Z,61.40
